Time;durP1;ratioP1;P1;durP2;ratioP2;P2;SDS_P1;SDS_P2;PMS_P1;PMS_P2;Temp;Humidity;BMP_temperature;BMP_pressure;BME280_temperature;BME280_humidity;BME280_pressure;Samples;Min_cycle;Max_cycle;Signal;HPM_P1;HPM_P2
2021/07/25 00:01:37;;;;;;;;;0.00;0.00;;;;;27.12;96.67;100218.34;5037892;28;45333;-69
2021/07/25 00:04:02;;;;;;;;;0.00;0.00;;;;;27.13;95.67;100211.09;5031821;28;46204;-69
2021/07/25 00:06:28;;;;;;;;;0.00;0.00;;;;;27.10;94.97;100200.78;5037054;28;45301;-68
2021/07/25 00:08:53;;;;;;;;;0.00;0.00;;;;;27.04;95.47;100207.13;5037460;28;51792;-68
2021/07/25 00:11:19;;;;;;;;;0.00;0.00;;;;;27.01;95.39;100205.75;5041578;28;45522;-69
2021/07/25 00:13:47;;;;;;;;;0.00;0.00;;;;;26.90;96.90;100210.13;5039323;28;47286;-69
2021/07/25 00:16:13;;;;;;;;;0.00;0.00;;;;;26.89;95.72;100211.19;5034526;28;45441;-69
2021/07/25 00:18:39;;;;;;;;;0.00;0.00;;;;;26.84;95.78;100211.06;5037187;28;45471;-70
2021/07/25 00:21:04;;;;;;;;;0.00;0.00;;;;;26.79;96.07;100211.78;5038944;28;45397;-68
2021/07/25 00:23:29;;;;;;;;;0.00;0.00;;;;;26.77;96.17;100208.53;5041567;28;46448;-69
2021/07/25 00:25:56;;;;;;;;;0.00;0.00;;;;;26.81;96.25;100208.88;5041716;28;45423;-68
2021/07/25 00:28:32;;;;;;;;;0.00;0.00;;;;;26.82;96.55;100210.50;5041835;28;45476;-68
2021/07/25 00:31:08;;;;;;;;;0.00;0.00;;;;;26.77;96.54;100197.75;5035801;28;45213;-69
2021/07/25 00:33:34;;;;;;;;;0.00;0.00;;;;;26.77;97.07;100205.00;5036504;28;45464;-69
2021/07/25 00:36:00;;;;;;;;;0.00;0.00;;;;;26.77;96.91;100196.94;5041299;28;45275;-69
2021/07/25 00:38:26;;;;;;;;;1.75;1.75;;;;;26.73;96.84;100206.53;5041624;28;45183;-71
2021/07/25 00:40:56;;;;;;;;;0.00;0.00;;;;;26.74;96.66;100202.81;5039642;28;45518;-69
2021/07/25 00:43:28;;;;;;;;;0.00;0.00;;;;;26.72;97.59;100196.84;5037957;28;45523;-69
2021/07/25 00:45:55;;;;;;;;;0.00;0.00;;;;;26.77;96.05;100188.84;5021554;28;45375;-69
2021/07/25 00:48:25;;;;;;;;;0.00;0.00;;;;;26.76;97.13;100184.50;5021582;28;45347;-70
2021/07/25 00:50:50;;;;;;;;;0.00;0.00;;;;;26.76;96.11;100193.44;5026714;28;45611;-68
2021/07/25 00:53:17;;;;;;;;;0.00;0.00;;;;;26.77;96.60;100184.28;5036598;28;46531;-68
2021/07/25 00:55:43;;;;;;;;;0.00;0.00;;;;;26.75;97.59;100185.56;5032331;28;45226;-69
2021/07/25 00:58:10;;;;;;;;;0.00;0.00;;;;;26.77;96.87;100186.97;5041263;28;45389;-68
2021/07/25 01:00:35;;;;;;;;;0.00;0.00;;;;;26.79;97.24;100184.03;5040108;28;45833;-69
2021/07/25 01:03:22;;;;;;;;;0.00;0.00;;;;;26.80;97.37;100191.91;5025114;28;47320;-69
2021/07/25 01:06:06;;;;;;;;;0.00;0.00;;;;;26.81;96.92;100184.63;5044536;28;45261;-70
2021/07/25 01:08:45;;;;;;;;;0.00;0.00;;;;;26.73;97.81;100177.72;5034289;28;45340;-69
2021/07/25 01:11:12;;;;;;;;;0.00;0.00;;;;;26.70;97.95;100175.53;5038042;28;45480;-70
2021/07/25 01:13:42;;;;;;;;;0.00;0.00;;;;;26.65;97.57;100166.50;5030583;28;45501;-70
2021/07/25 01:16:08;;;;;;;;;0.00;0.00;;;;;26.66;98.03;100171.66;5046394;28;45491;-69
2021/07/25 01:18:50;;;;;;;;;0.00;0.00;;;;;26.70;97.41;100172.81;5041039;28;45200;-69
2021/07/25 01:21:17;;;;;;;;;0.00;0.00;;;;;26.65;97.89;100174.59;5040745;28;45553;-69
2021/07/25 01:23:43;;;;;;;;;0.00;0.00;;;;;26.59;99.08;100179.06;5019840;28;47172;-69
2021/07/25 01:26:10;;;;;;;;;0.00;0.00;;;;;26.52;99.56;100176.50;5040837;28;45236;-69
2021/07/25 01:28:40;;;;;;;;;0.00;0.00;;;;;26.48;100.00;100172.63;5040850;28;45254;-69
2021/07/25 01:31:15;;;;;;;;;0.00;0.00;;;;;26.47;100.00;100173.69;5040557;28;45347;-69
2021/07/25 01:33:43;;;;;;;;;0.00;0.00;;;;;26.47;100.00;100181.75;5033681;28;45605;-69
2021/07/25 01:36:10;;;;;;;;;0.00;0.00;;;;;26.44;100.00;100181.44;5040883;28;45386;-69
2021/07/25 01:38:35;;;;;;;;;0.00;0.00;;;;;26.37;100.00;100182.38;5036808;28;45312;-68
2021/07/25 01:41:07;;;;;;;;;0.00;0.00;;;;;26.36;100.00;100178.03;5040365;28;45445;-69
2021/07/25 01:43:35;;;;;;;;;0.00;0.00;;;;;26.35;100.00;100180.94;5029324;28;45876;-69
2021/07/25 01:46:01;;;;;;;;;0.00;0.00;;;;;26.36;100.00;100174.53;5029912;28;45209;-69
2021/07/25 01:48:27;;;;;;;;;0.00;0.00;;;;;26.29;100.00;100176.53;5040885;28;45185;-69
2021/07/25 01:50:52;;;;;;;;;0.00;0.00;;;;;26.24;100.00;100173.72;5022425;28;45513;-69
2021/07/25 01:53:17;;;;;;;;;0.00;0.00;;;;;26.22;100.00;100165.91;5040372;28;46069;-69
2021/07/25 01:55:43;;;;;;;;;0.00;0.00;;;;;26.18;100.00;100172.81;5040510;28;45229;-69
2021/07/25 01:58:09;;;;;;;;;0.00;0.00;;;;;26.15;100.00;100175.94;5023026;28;45471;-70
2021/07/25 02:00:35;;;;;;;;;0.00;0.00;;;;;26.13;100.00;100175.38;5013160;28;45340;-70
2021/07/25 02:03:00;;;;;;;;;0.00;0.00;;;;;26.01;100.00;100170.00;5039754;28;46512;-68
2021/07/25 02:05:25;;;;;;;;;0.00;0.00;;;;;26.02;100.00;100170.81;5038430;28;49117;-69
2021/07/25 02:07:51;;;;;;;;;0.00;0.00;;;;;25.96;100.00;100168.03;5043879;28;45418;-69
2021/07/25 02:10:16;;;;;;;;;0.00;0.00;;;;;25.93;100.00;100181.94;5034389;28;45228;-68
2021/07/25 02:12:43;;;;;;;;;0.00;0.00;;;;;25.87;100.00;100166.69;5040861;28;45361;-68
2021/07/25 02:15:09;;;;;;;;;0.00;0.00;;;;;25.84;100.00;100163.66;5041816;28;45296;-69
2021/07/25 02:17:34;;;;;;;;;0.00;0.00;;;;;25.84;100.00;100163.66;5044115;28;45171;-69
2021/07/25 02:20:00;;;;;;;;;0.00;0.00;;;;;25.87;100.00;100161.31;5039484;28;45222;-69
2021/07/25 02:22:25;;;;;;;;;0.00;0.00;;;;;25.92;100.00;100168.72;5038407;28;45550;-69
2021/07/25 02:24:50;;;;;;;;;0.00;0.00;;;;;25.92;100.00;100166.03;5036288;28;45222;-68
2021/07/25 02:27:15;;;;;;;;;0.00;0.00;;;;;25.86;100.00;100167.75;5043442;28;45440;-68
2021/07/25 02:29:41;;;;;;;;;0.00;0.00;;;;;25.88;100.00;100164.84;5035511;28;46972;-69
2021/07/25 02:32:06;;;;;;;;;0.00;0.00;;;;;25.84;100.00;100159.09;5040741;28;45465;-69
2021/07/25 02:34:32;;;;;;;;;0.00;0.00;;;;;25.84;100.00;100160.97;5034995;28;45371;-70
2021/07/25 02:36:57;;;;;;;;;0.00;0.00;;;;;25.90;100.00;100160.06;5043890;28;45244;-70
2021/07/25 02:39:23;;;;;;;;;0.00;0.00;;;;;25.94;100.00;100153.97;5039751;28;45508;-70
2021/07/25 02:41:48;;;;;;;;;0.00;0.00;;;;;25.91;100.00;100150.94;5043278;28;45326;-70
2021/07/25 02:44:13;;;;;;;;;0.00;0.00;;;;;25.86;100.00;100157.00;5008739;28;45840;-70
2021/07/25 02:46:39;;;;;;;;;0.00;0.00;;;;;25.79;100.00;100142.84;5026152;28;45520;-69
2021/07/25 02:49:04;;;;;;;;;0.00;0.00;;;;;25.71;100.00;100151.25;5024857;28;45380;-69
2021/07/25 02:51:30;;;;;;;;;0.00;0.00;;;;;25.67;100.00;100148.22;5040381;28;46758;-69
2021/07/25 02:53:55;;;;;;;;;0.00;0.00;;;;;25.70;100.00;100145.06;5033804;28;45351;-69
2021/07/25 02:56:20;;;;;;;;;0.00;0.00;;;;;25.69;100.00;100150.69;5040134;28;45462;-69
2021/07/25 02:58:45;;;;;;;;;0.00;0.00;;;;;25.54;100.00;100149.25;5043521;28;45371;-69
2021/07/25 03:01:11;;;;;;;;;0.00;0.00;;;;;25.41;100.00;100146.78;5039878;28;47195;-69
2021/07/25 03:03:38;;;;;;;;;0.00;0.00;;;;;25.36;100.00;100154.72;5016554;28;46273;-69
2021/07/25 03:06:03;;;;;;;;;0.00;0.00;;;;;25.27;100.00;100154.25;5042907;28;45474;-70
2021/07/25 03:08:29;;;;;;;;;0.00;0.00;;;;;25.28;100.00;100147.81;5041929;28;45442;-69
2021/07/25 03:10:54;;;;;;;;;0.00;0.00;;;;;25.25;100.00;100147.44;5043048;28;46337;-68
2021/07/25 03:13:19;;;;;;;;;0.00;0.00;;;;;25.25;100.00;100142.91;5041566;28;50911;-69
2021/07/25 03:15:44;;;;;;;;;0.00;0.00;;;;;25.23;100.00;100145.00;5037449;28;45509;-68
2021/07/25 03:18:10;;;;;;;;;0.00;0.00;;;;;25.24;100.00;100149.31;5037437;28;45459;-69
2021/07/25 03:20:35;;;;;;;;;0.00;0.00;;;;;25.30;100.00;100136.84;5044948;28;45281;-70
2021/07/25 03:23:00;;;;;;;;;0.00;0.00;;;;;25.33;100.00;100139.84;5005341;28;45915;-69
2021/07/25 03:25:26;;;;;;;;;0.00;0.00;;;;;25.41;100.00;100137.91;5014868;28;45352;-69
2021/07/25 03:27:51;;;;;;;;;0.00;0.00;;;;;25.44;100.00;100132.06;5038311;28;47831;-69
2021/07/25 03:30:17;;;;;;;;;0.00;0.00;;;;;25.35;100.00;100132.38;5038580;28;45347;-69
2021/07/25 03:32:42;;;;;;;;;0.00;0.00;;;;;25.28;100.00;100137.06;5030095;28;45483;-68
2021/07/25 03:35:08;;;;;;;;;0.00;0.00;;;;;25.24;100.00;100141.25;5026448;28;45514;-69
2021/07/25 03:37:34;;;;;;;;;0.00;0.00;;;;;25.30;100.00;100136.84;5030755;28;45700;-69
2021/07/25 03:39:59;;;;;;;;;0.00;0.00;;;;;25.31;100.00;100141.16;5033964;28;45477;-68
2021/07/25 03:42:25;;;;;;;;;0.00;0.00;;;;;25.23;100.00;100131.56;5033777;28;45392;-69
2021/07/25 03:44:50;;;;;;;;;0.00;0.00;;;;;25.21;100.00;100141.72;5010144;28;45477;-69
2021/07/25 03:47:16;;;;;;;;;0.00;0.00;;;;;25.11;100.00;100134.19;5032644;28;45395;-69
2021/07/25 03:49:43;;;;;;;;;0.00;0.00;;;;;25.07;100.00;100132.19;5020945;28;47111;-69
2021/07/25 03:52:11;;;;;;;;;0.00;0.00;;;;;25.08;100.00;100131.16;5035692;28;45429;-69
2021/07/25 03:54:38;;;;;;;;;0.00;0.00;;;;;25.08;100.00;100115.84;5022640;28;45249;-69
2021/07/25 03:57:05;;;;;;;;;0.00;0.00;;;;;25.08;100.00;100125.78;5015809;28;45546;-69
2021/07/25 03:59:30;;;;;;;;;0.00;0.00;;;;;25.03;100.00;100125.63;5041339;28;45427;-69
2021/07/25 04:01:56;;;;;;;;;0.00;0.00;;;;;24.91;100.00;100126.41;5039978;28;49059;-69
2021/07/25 04:04:21;;;;;;;;;0.00;0.00;;;;;24.86;100.00;100123.59;5035057;28;45422;-69
2021/07/25 04:06:46;;;;;;;;;0.00;0.00;;;;;24.85;100.00;100123.81;5039838;28;45275;-69
2021/07/25 04:09:12;;;;;;;;;0.00;0.00;;;;;24.87;100.00;100117.16;5039564;28;46952;-68
2021/07/25 04:11:37;;;;;;;;;0.00;0.00;;;;;24.87;100.00;100124.41;5037612;28;45442;-68
2021/07/25 04:14:02;;;;;;;;;0.00;0.00;;;;;24.94;100.00;100122.44;5026589;28;45329;-69
2021/07/25 04:16:27;;;;;;;;;0.00;0.00;;;;;24.89;100.00;100122.31;5033363;28;45554;-69
2021/07/25 04:18:53;;;;;;;;;0.00;0.00;;;;;24.91;100.00;100122.91;5038314;28;46209;-69
2021/07/25 04:21:18;;;;;;;;;0.00;0.00;;;;;24.92;100.00;100122.69;5036875;28;45380;-69
2021/07/25 04:23:44;;;;;;;;;0.00;0.00;;;;;24.88;100.00;100128.72;5022145;28;45398;-67
2021/07/25 04:26:09;;;;;;;;;0.00;0.00;;;;;24.86;100.00;100114.72;5042100;28;45672;-68
2021/07/25 04:28:36;;;;;;;;;0.00;0.00;;;;;24.88;100.00;100126.88;5041692;28;46702;-66
2021/07/25 04:31:02;;;;;;;;;0.00;0.00;;;;;24.87;100.00;100122.53;5038728;28;45419;-68
2021/07/25 04:33:29;;;;;;;;;0.00;0.00;;;;;24.92;100.00;100121.84;5030767;28;45417;-68
2021/07/25 04:35:56;;;;;;;;;0.00;0.00;;;;;24.88;100.00;100120.66;5045631;28;45386;-67
2021/07/25 04:38:21;;;;;;;;;0.00;0.00;;;;;24.88;100.00;100118.81;5021733;28;45392;-69
2021/07/25 04:40:56;;;;;;;;;0.00;0.00;;;;;24.85;100.00;100119.25;5040903;28;45450;-69
2021/07/25 04:43:24;;;;;;;;;0.00;0.00;;;;;24.86;100.00;100120.06;5030841;28;45287;-69
2021/07/25 04:46:00;;;;;;;;;0.00;0.00;;;;;24.93;100.00;100126.19;5038530;28;45678;-69
2021/07/25 04:48:34;;;;;;;;;0.00;0.00;;;;;24.91;100.00;100123.72;5038075;28;46756;-69
2021/07/25 04:51:07;;;;;;;;;0.00;0.00;;;;;24.96;100.00;100123.03;5041702;28;45268;-70
2021/07/25 04:53:41;;;;;;;;;0.00;0.00;;;;;25.01;100.00;100122.34;5041660;28;45454;-70
2021/07/25 04:56:09;;;;;;;;;0.00;0.00;;;;;24.97;100.00;100127.38;5038879;28;45523;-69
2021/07/25 04:58:48;;;;;;;;;0.00;0.00;;;;;25.04;100.00;100127.28;5039958;28;46159;-69
2021/07/25 05:01:18;;;;;;;;;0.00;0.00;;;;;25.09;100.00;100127.41;5025868;28;45362;-69
2021/07/25 05:03:44;;;;;;;;;0.00;0.00;;;;;25.12;100.00;100137.72;5034175;28;45339;-69
2021/07/25 05:06:12;;;;;;;;;0.00;0.00;;;;;25.11;100.00;100136.88;5025195;28;45436;-69
2021/07/25 05:08:38;;;;;;;;;0.00;0.00;;;;;25.07;100.00;100137.56;5041459;28;46400;-69
2021/07/25 05:11:12;;;;;;;;;0.00;0.00;;;;;24.99;100.00;100133.34;5039032;28;45562;-69
2021/07/25 05:13:38;;;;;;;;;0.00;0.00;;;;;25.08;100.00;100140.03;5038576;28;45249;-69
2021/07/25 05:16:07;;;;;;;;;0.00;0.00;;;;;25.15;100.00;100134.53;5033985;28;45209;-69
2021/07/25 05:18:38;;;;;;;;;0.00;0.00;;;;;25.20;100.00;100133.88;5034303;28;45621;-69
2021/07/25 05:21:08;;;;;;;;;0.00;0.00;;;;;25.19;100.00;100143.78;5038575;28;46751;-70
2021/07/25 05:23:47;;;;;;;;;0.00;0.00;;;;;25.18;100.00;100139.44;5037981;28;45344;-69
2021/07/25 05:26:13;;;;;;;;;0.00;0.00;;;;;25.16;100.00;100147.75;5016967;28;45262;-69
2021/07/25 05:28:40;;;;;;;;;0.00;0.00;;;;;25.13;100.00;100147.38;5028271;28;46263;-69
2021/07/25 05:31:08;;;;;;;;;0.00;0.00;;;;;25.10;100.00;100153.22;5025269;28;45524;-67
2021/07/25 05:33:34;;;;;;;;;0.00;0.00;;;;;24.81;100.00;100149.50;5034895;28;45344;-68
2021/07/25 05:35:59;;;;;;;;;0.00;0.00;;;;;24.62;100.00;100146.03;5024849;28;45344;-67
2021/07/25 05:38:25;;;;;;;;;0.00;0.00;;;;;24.54;100.00;100147.16;5041110;28;45248;-69
2021/07/25 05:40:50;;;;;;;;;0.00;0.00;;;;;24.48;100.00;100148.03;5039927;28;49857;-69
2021/07/25 05:43:16;;;;;;;;;0.00;0.00;;;;;24.44;100.00;100136.09;5046220;28;46578;-68
2021/07/25 05:45:42;;;;;;;;;0.75;0.00;;;;;24.52;100.00;100131.28;5045198;28;45506;-69
2021/07/25 05:48:08;;;;;;;;;0.00;0.00;;;;;24.51;100.00;100126.97;5028438;28;45282;-68
2021/07/25 05:50:34;;;;;;;;;0.00;0.00;;;;;24.58;100.00;100126.03;5038273;28;45394;-68
2021/07/25 05:53:00;;;;;;;;;0.00;0.00;;;;;24.68;100.00;100135.19;5035652;28;45428;-68
2021/07/25 05:55:31;;;;;;;;;2.00;0.00;;;;;24.80;100.00;100126.38;5038628;28;45325;-68
2021/07/25 05:57:58;;;;;;;;;0.00;0.00;;;;;24.80;100.00;100131.75;5046339;28;45434;-68
2021/07/25 06:00:23;;;;;;;;;0.00;0.00;;;;;24.80;100.00;100119.13;5045942;28;45455;-68
2021/07/25 06:02:58;;;;;;;;;0.00;0.00;;;;;24.83;100.00;100116.00;5036434;28;45393;-68
2021/07/25 06:05:25;;;;;;;;;0.00;0.00;;;;;24.95;100.00;100113.34;5038944;28;45445;-68
2021/07/25 06:07:51;;;;;;;;;0.50;0.50;;;;;25.14;100.00;100120.28;5043498;28;45291;-67
2021/07/25 06:10:17;;;;;;;;;0.00;0.00;;;;;25.15;100.00;100131.84;5034120;28;45399;-67
2021/07/25 06:12:43;;;;;;;;;0.00;0.00;;;;;25.16;100.00;100128.09;5032311;28;45335;-68
2021/07/25 06:15:09;;;;;;;;;0.00;0.00;;;;;25.27;100.00;100134.59;5043526;28;45458;-68
2021/07/25 06:17:34;;;;;;;;;0.00;0.00;;;;;25.39;100.00;100132.75;5032898;28;46080;-68
2021/07/25 06:20:00;;;;;;;;;0.00;0.00;;;;;25.53;100.00;100128.81;5045510;28;45486;-68
2021/07/25 06:22:25;;;;;;;;;0.00;0.00;;;;;25.74;100.00;100130.06;5045569;28;45314;-67
2021/07/25 06:24:50;;;;;;;;;0.00;0.00;;;;;25.95;100.00;100126.00;5039665;28;45470;-68
2021/07/25 06:27:16;;;;;;;;;0.00;0.00;;;;;26.09;100.00;100133.84;5041714;28;45442;-68
2021/07/25 06:29:41;;;;;;;;;0.00;0.00;;;;;26.21;100.00;100131.94;5038436;28;45237;-69
2021/07/25 06:32:08;;;;;;;;;0.00;0.00;;;;;26.41;100.00;100134.22;5035064;28;45516;-69
2021/07/25 06:34:34;;;;;;;;;0.00;0.00;;;;;26.64;100.00;100121.78;5039348;28;45520;-69
2021/07/25 06:36:59;;;;;;;;;0.00;0.00;;;;;26.75;100.00;100124.44;5035175;28;45331;-68
2021/07/25 06:39:24;;;;;;;;;0.00;0.00;;;;;26.78;100.00;100126.66;5046708;28;45482;-68
2021/07/25 06:41:50;;;;;;;;;0.00;0.00;;;;;26.77;100.00;100129.59;5045126;28;45394;-68
2021/07/25 06:44:15;;;;;;;;;0.00;0.00;;;;;26.72;100.00;100140.28;5041391;28;45406;-68
2021/07/25 06:46:40;;;;;;;;;0.00;0.00;;;;;26.69;100.00;100129.97;5044397;28;45398;-69
2021/07/25 06:49:05;;;;;;;;;0.00;0.00;;;;;26.92;100.00;100120.97;5017633;28;45304;-68
2021/07/25 06:51:31;;;;;;;;;0.00;0.00;;;;;27.15;100.00;100131.63;5031079;28;45430;-69
2021/07/25 06:53:57;;;;;;;;;0.00;0.00;;;;;27.26;100.00;100132.63;5031623;28;45525;-69
2021/07/25 06:56:22;;;;;;;;;0.00;0.00;;;;;27.23;100.00;100125.03;5018959;28;47855;-69
2021/07/25 06:58:48;;;;;;;;;0.00;0.00;;;;;27.30;100.00;100136.50;5036086;28;45481;-69
2021/07/25 07:01:13;;;;;;;;;3.25;2.50;;;;;27.28;100.00;100137.75;5042872;28;45542;-68
2021/07/25 07:03:38;;;;;;;;;0.00;0.00;;;;;27.31;100.00;100132.72;5043477;28;45572;-68
2021/07/25 07:06:07;;;;;;;;;0.00;0.00;;;;;27.36;100.00;100132.78;5030106;28;45313;-68
2021/07/25 07:08:33;;;;;;;;;0.00;0.00;;;;;27.49;100.00;100133.53;5030100;28;45189;-69
2021/07/25 07:10:58;;;;;;;;;0.00;0.00;;;;;27.70;100.00;100146.28;5042880;28;50285;-70
2021/07/25 07:13:24;;;;;;;;;0.00;0.00;;;;;27.88;100.00;100147.09;5043459;28;45490;-70
2021/07/25 07:15:49;;;;;;;;;0.00;0.00;;;;;27.92;100.00;100143.66;5038602;28;46411;-70
2021/07/25 07:18:16;;;;;;;;;0.00;0.00;;;;;27.97;100.00;100134.78;5042755;28;45451;-71
2021/07/25 07:20:41;;;;;;;;;0.00;0.00;;;;;28.06;100.00;100144.13;5023495;28;45285;-70
2021/07/25 07:23:09;;;;;;;;;0.00;0.00;;;;;27.92;100.00;100145.53;5049163;28;45455;-70
2021/07/25 07:25:41;;;;;;;;;0.00;0.00;;;;;27.86;100.00;100141.94;5023182;28;46346;-71
2021/07/25 07:28:07;;;;;;;;;0.00;0.00;;;;;27.86;100.00;100143.81;5042760;28;45384;-69
2021/07/25 07:30:33;;;;;;;;;0.00;0.00;;;;;27.86;100.00;100150.03;5042119;28;45122;-70
2021/07/25 07:33:11;;;;;;;;;0.00;0.00;;;;;27.71;100.00;100147.06;5043333;28;45255;-69
2021/07/25 07:35:37;;;;;;;;;0.00;0.00;;;;;28.02;100.00;100151.09;5032824;28;46116;-69
2021/07/25 07:38:03;;;;;;;;;0.00;0.00;;;;;28.32;100.00;100139.06;5042812;28;45189;-71
2021/07/25 07:40:29;;;;;;;;;58.50;32.25;;;;;28.68;100.00;100153.81;5042845;28;45362;-72
2021/07/25 07:42:54;;;;;;;;;0.00;0.00;;;;;28.93;99.48;100147.84;5024468;28;45745;-71
2021/07/25 07:45:19;;;;;;;;;0.00;0.00;;;;;29.02;98.01;100150.91;5039675;28;46127;-70
2021/07/25 07:47:46;;;;;;;;;0.00;0.00;;;;;28.94;97.63;100151.38;5031506;28;45336;-72
2021/07/25 07:50:12;;;;;;;;;0.00;0.00;;;;;28.72;96.78;100154.94;5024272;28;45434;-70
2021/07/25 07:52:37;;;;;;;;;0.00;0.00;;;;;28.40;97.62;100158.34;5042577;28;45626;-70
2021/07/25 07:55:03;;;;;;;;;0.00;0.00;;;;;28.23;98.98;100142.19;5036507;28;46162;-71
2021/07/25 07:57:29;;;;;;;;;0.00;0.00;;;;;28.09;99.24;100157.09;5027318;28;45486;-70
2021/07/25 07:59:54;;;;;;;;;0.00;0.00;;;;;27.74;100.00;100160.91;5028337;28;45333;-73
2021/07/25 08:02:19;;;;;;;;;0.00;0.00;;;;;27.25;100.00;100157.94;5030676;28;45474;-70
2021/07/25 08:04:44;;;;;;;;;0.00;0.00;;;;;26.88;100.00;100155.66;5037914;28;46182;-72
2021/07/25 08:07:10;;;;;;;;;0.00;0.00;;;;;26.66;100.00;100160.91;5036269;28;49082;-70
2021/07/25 08:09:35;;;;;;;;;0.00;0.00;;;;;26.55;100.00;100154.47;5024174;28;45331;-71
2021/07/25 08:12:02;;;;;;;;;0.00;0.00;;;;;26.55;100.00;100159.03;5034916;28;45225;-72
2021/07/25 08:14:27;;;;;;;;;0.00;0.00;;;;;26.26;100.00;100164.34;5037319;28;46159;-76
2021/07/25 08:16:53;;;;;;;;;0.50;0.50;;;;;26.23;100.00;100158.63;5036925;28;45438;-73
2021/07/25 08:19:18;;;;;;;;;0.00;0.00;;;;;26.19;100.00;100156.41;5042157;28;45227;-72
2021/07/25 08:21:44;;;;;;;;;0.00;0.00;;;;;26.26;100.00;100156.25;5034555;28;45364;-73
2021/07/25 08:24:09;;;;;;;;;0.25;0.00;;;;;26.33;100.00;100154.28;5010061;28;46792;-73
2021/07/25 08:26:35;;;;;;;;;0.00;0.00;;;;;26.33;100.00;100150.78;5033478;28;45368;-72
2021/07/25 08:29:02;;;;;;;;;0.00;0.00;;;;;26.27;100.00;100149.84;5030993;28;45339;-72
2021/07/25 08:31:27;;;;;;;;;0.00;0.00;;;;;26.36;100.00;100148.41;5038300;28;45565;-73
2021/07/25 08:33:53;;;;;;;;;0.00;0.00;;;;;26.45;100.00;100151.56;5042901;28;45379;-75
2021/07/25 08:36:18;;;;;;;;;0.00;0.00;;;;;26.50;100.00;100148.13;5036519;28;45384;-72
2021/07/25 08:38:43;;;;;;;;;0.00;0.00;;;;;26.52;100.00;100157.63;5028048;28;45492;-72
